CST,Max TemperatureF,Mean TemperatureF,Min TemperatureF,Max Dew PointF,MeanDew PointF,Min DewpointF,Max Humidity, Mean Humidity, Min Humidity, Max Sea Level PressureIn, Mean Sea Level PressureIn, Min Sea Level PressureIn, Max VisibilityMiles, Mean VisibilityMiles, Min VisibilityMiles, Max Wind SpeedMPH, Mean Wind SpeedMPH, Max Gust SpeedMPH,PrecipitationIn, CloudCover, Events, WindDirDegrees
2013-2-1,28,16,5,18,8,-2,85,65,51,30.48,30.34,30.15,10,10,10,10,4,16,0.00,1,,185
2013-2-2,44,35,26,34,26,18,93,73,64,30.21,30.14,30.06,10,10,10,13,3,22,0.00,4,,289
2013-2-3,44,38,32,32,23,12,81,59,34,30.27,30.11,29.87,10,10,10,15,8,23,0.00,0,,240
2013-2-4,41,32,23,32,27,23,100,84,65,30.00,29.92,29.80,10,10,5,18,5,24,0.00,2,,340
2013-2-5,53,38,23,32,28,21,100,76,38,30.12,29.98,29.90,10,8,5,16,3,21,0.00,0,,307
2013-2-6,60,43,26,37,32,23,100,69,39,30.12,30.02,29.89,10,10,10,13,3,20,0.00,2,,137
2013-2-7,51,42,33,45,38,30,100,87,58,30.21,29.98,29.88,10,8,1,20,7,26,0.00,8,Rain-Thunderstorm,337
2013-2-8,35,34,32,30,29,28,93,86,81,30.36,30.29,30.21,10,10,7,15,8,18,0.00,7,,67
2013-2-9,44,37,30,36,32,28,100,84,61,30.25,30.07,29.79,10,8,5,15,9,18,0.00,6,Rain-Thunderstorm,127
2013-2-10,53,45,37,46,35,25,100,72,47,29.87,29.61,29.45,10,8,2,30,14,41,0.00,6,Rain,204
2013-2-11,46,37,28,28,26,23,93,68,43,30.17,30.07,29.88,10,10,10,23,12,37,0.00,1,,274
2013-2-12,41,32,23,30,26,21,100,84,57,30.19,30.08,29.96,10,10,5,6,1,,0.00,0,,159
2013-2-13,53,38,24,30,26,23,100,64,33,29.95,29.85,29.79,10,10,7,12,3,18,0.00,0,,246
2013-2-14,50,41,32,32,28,25,87,62,43,30.15,29.98,29.81,10,10,10,17,5,23,0.00,2,,296
2013-2-15,35,29,23,30,17,5,81,60,32,30.38,30.30,30.17,10,10,7,20,10,25,0.00,3,Snow,322
2013-2-16,33,26,19,25,20,18,93,70,55,30.31,30.21,30.08,10,10,10,10,4,16,0.00,5,,180
2013-2-17,55,42,30,32,28,23,80,59,41,30.08,29.91,29.68,10,10,10,13,6,18,0.00,1,,132
2013-2-18,55,42,30,48,32,18,88,67,50,30.06,29.71,29.56,10,10,3,25,11,43,0.00,4,Rain-Thunderstorm,259
2013-2-19,32,24,17,19,11,3,80,56,30,30.36,30.24,30.07,10,10,10,20,11,28,0.00,0,,303
2013-2-20,26,20,14,14,10,5,86,65,55,30.41,30.31,30.22,10,10,10,13,5,,0.00,3,,69
2013-2-21,26,24,23,25,20,14,93,82,68,30.23,29.96,29.77,10,5,0,25,11,34,0.00,7,Snow,81
2013-2-22,30,20,10,27,20,9,100,81,60,30.07,29.96,29.78,10,10,5,15,5,21,0.00,4,Snow,272
2013-2-23,35,18,0,21,12,-4,100,77,52,30.07,30.01,29.95,10,10,7,9,1,,0.00,0,,182
2013-2-24,41,24,8,27,18,5,93,73,49,30.05,30.00,29.94,10,10,7,12,2,,0.00,0,,91
2013-2-25,37,32,28,32,28,23,93,78,69,29.99,29.90,29.70,10,9,2,20,6,25,0.00,3,Rain-Snow,31
2013-2-26,33,32,32,32,32,30,100,95,87,29.84,29.66,29.55,10,4,0,24,15,31,0.00,8,Snow,343
2013-2-27,33,32,30,30,28,25,93,85,70,30.02,29.92,29.82,10,5,1,18,11,23,0.00,6,Snow,304
2013-2-28,33,30,28,28,26,23,87,81,75,30.20,30.14,30.03,10,10,10,18,12,26,0.00,7,,314